Time;durP1;ratioP1;P1;durP2;ratioP2;P2;SDS_P1;SDS_P2;PMS_P1;PMS_P2;Temp;Humidity;BMP_temperature;BMP_pressure;BME280_temperature;BME280_humidity;BME280_pressure;Samples;Min_cycle;Max_cycle;Signal;HPM_P1;HPM_P2
2022/06/10 00:01:04;;;;;;;2.17;0.90;;;12.80;99.90;;;;;;5076243;28;20028;-73
2022/06/10 00:03:30;;;;;;;2.70;0.90;;;12.80;99.90;;;;;;5069789;28;20041;-72
2022/06/10 00:06:04;;;;;;;4.03;1.00;;;12.70;99.90;;;;;;5078206;28;20029;-72
2022/06/10 00:08:33;;;;;;;2.80;0.70;;;12.70;99.90;;;;;;5067881;28;20040;-72
2022/06/10 00:11:01;;;;;;;1.23;0.77;;;12.70;99.90;;;;;;5064410;28;20550;-73
2022/06/10 00:13:31;;;;;;;3.47;0.90;;;12.60;99.90;;;;;;5064219;28;20381;-72
2022/06/10 00:15:57;;;;;;;6.05;1.10;;;12.60;99.90;;;;;;5076282;28;20050;-72
2022/06/10 00:18:25;;;;;;;6.65;1.17;;;12.60;99.90;;;;;;5071487;28;20076;-73
2022/06/10 00:20:51;;;;;;;3.00;0.90;;;12.60;99.90;;;;;;5078759;28;20051;-73
2022/06/10 00:23:17;;;;;;;2.50;1.02;;;12.60;99.90;;;;;;5079197;28;20021;-73
2022/06/10 00:25:43;;;;;;;4.55;1.38;;;12.50;99.90;;;;;;5074313;28;20070;-73
2022/06/10 00:28:09;;;;;;;5.53;1.27;;;12.50;99.90;;;;;;5074461;28;20074;-71
2022/06/10 00:30:36;;;;;;;2.83;1.52;;;12.50;99.90;;;;;;5073060;28;20150;-73
2022/06/10 00:33:02;;;;;;;4.20;1.10;;;12.50;99.90;;;;;;5066052;28;20033;-73
2022/06/10 00:35:29;;;;;;;5.53;1.20;;;12.50;99.90;;;;;;5066430;28;20029;-72
2022/06/10 00:37:55;;;;;;;2.05;0.85;;;12.40;99.90;;;;;;5068473;28;20079;-73
2022/06/10 00:40:31;;;;;;;3.78;1.13;;;12.40;99.90;;;;;;5069728;28;20436;-74
2022/06/10 00:42:58;;;;;;;3.72;1.52;;;12.40;99.90;;;;;;5071390;28;20025;-73
2022/06/10 00:45:57;;;;;;;1.65;0.65;;;12.40;99.90;;;;;;5073018;28;20025;-72
2022/06/10 00:48:43;;;;;;;4.40;0.75;;;12.30;99.90;;;;;;5072730;28;20056;-72
2022/06/10 00:51:26;;;;;;;2.03;0.85;;;12.20;99.90;;;;;;5069610;28;20032;-73
2022/06/10 00:54:01;;;;;;;1.65;1.00;;;12.20;99.90;;;;;;5060821;28;20112;-72
2022/06/10 00:56:29;;;;;;;1.55;1.02;;;12.10;99.90;;;;;;5070478;28;20456;-73
2022/06/10 00:59:20;;;;;;;2.45;0.80;;;12.10;99.90;;;;;;5044352;28;20068;-72
2022/06/10 01:01:47;;;;;;;1.70;0.95;;;12.00;99.90;;;;;;5061319;28;20035;-72
2022/06/10 01:04:13;;;;;;;3.72;1.17;;;12.00;99.90;;;;;;5062242;28;20456;-72
2022/06/10 01:06:39;;;;;;;4.68;1.00;;;12.00;99.90;;;;;;5071674;28;20056;-73
2022/06/10 01:09:05;;;;;;;2.17;1.10;;;11.90;99.90;;;;;;5071231;28;20173;-72
2022/06/10 01:11:56;;;;;;;2.15;1.00;;;11.90;99.90;;;;;;5065486;28;20058;-72
2022/06/10 01:15:06;;;;;;;4.05;1.25;;;11.90;99.90;;;;;;5063910;28;20392;-72
2022/06/10 01:17:54;;;;;;;1.55;1.08;;;11.80;99.90;;;;;;5021355;28;20037;-72
2022/06/10 01:21:00;;;;;;;3.55;1.38;;;11.80;99.90;;;;;;5016124;28;20132;-73
2022/06/10 01:23:49;;;;;;;3.08;1.20;;;11.80;99.90;;;;;;5016778;28;20161;-72
2022/06/10 01:29:52;;;;;;;2.65;1.30;;;11.70;99.90;;;;;;5018297;28;20127;-72
2022/06/10 01:32:26;;;;;;;3.40;1.38;;;11.70;99.90;;;;;;5012796;28;20041;-70
2022/06/10 01:35:15;;;;;;;3.28;1.45;;;11.70;99.90;;;;;;5023284;28;20445;-71
2022/06/10 01:38:04;;;;;;;3.57;1.40;;;11.70;99.90;;;;;;5016233;28;20457;-71
2022/06/10 01:40:54;;;;;;;2.83;1.23;;;11.70;99.90;;;;;;5024839;28;20296;-71
2022/06/10 01:43:27;;;;;;;3.08;1.42;;;11.60;99.90;;;;;;5014177;28;20022;-71
2022/06/10 01:46:11;;;;;;;3.80;1.60;;;11.60;99.90;;;;;;5014929;28;20120;-71
2022/06/10 01:48:44;;;;;;;3.03;1.30;;;11.60;99.90;;;;;;5049097;28;20044;-71
2022/06/10 01:51:27;;;;;;;4.63;1.20;;;11.60;99.90;;;;;;5074206;28;20050;-71
2022/06/10 01:54:04;;;;;;;5.63;1.73;;;11.60;99.90;;;;;;5066428;28;20032;-71
2022/06/10 01:56:37;;;;;;;3.65;1.50;;;11.60;99.90;;;;;;5064221;28;20424;-71
2022/06/10 01:59:13;;;;;;;3.42;1.38;;;11.50;99.90;;;;;;5076337;28;20040;-72
2022/06/10 02:01:42;;;;;;;4.95;1.63;;;11.60;99.90;;;;;;5067791;28;20569;-73
2022/06/10 02:04:31;;;;;;;4.25;1.48;;;11.50;99.90;;;;;;5074051;28;20028;-72
2022/06/10 02:07:13;;;;;;;4.90;1.52;;;11.50;99.90;;;;;;5080296;28;20388;-72
2022/06/10 02:09:54;;;;;;;6.07;1.77;;;11.50;99.90;;;;;;5074191;28;20496;-72
2022/06/10 02:12:35;;;;;;;5.55;1.63;;;11.50;99.90;;;;;;5074688;28;20020;-72
2022/06/10 02:15:07;;;;;;;3.33;1.50;;;11.40;99.90;;;;;;5072882;28;20028;-72
2022/06/10 02:17:41;;;;;;;2.20;1.33;;;11.40;99.90;;;;;;5069146;28;20029;-72
2022/06/10 02:20:11;;;;;;;3.90;1.40;;;11.40;99.90;;;;;;5068913;28;20031;-72
2022/06/10 02:22:43;;;;;;;2.03;1.20;;;11.30;99.90;;;;;;5073530;28;20037;-72
2022/06/10 02:25:16;;;;;;;7.00;1.40;;;11.30;99.90;;;;;;5080193;28;20028;-71
2022/06/10 02:27:46;;;;;;;4.60;1.52;;;11.30;99.90;;;;;;5074607;28;20111;-72
2022/06/10 02:30:26;;;;;;;2.03;1.35;;;11.30;99.90;;;;;;5073024;28;20052;-71
2022/06/10 02:32:56;;;;;;;6.22;1.60;;;11.30;99.90;;;;;;5068743;28;20076;-71
2022/06/10 02:35:25;;;;;;;5.72;1.80;;;11.30;99.90;;;;;;5067812;28;20108;-71
2022/06/10 02:38:19;;;;;;;4.57;1.40;;;11.30;99.90;;;;;;5079059;28;20036;-72
2022/06/10 02:41:04;;;;;;;4.80;1.67;;;11.20;99.90;;;;;;5079089;28;20040;-72
2022/06/10 02:43:40;;;;;;;3.38;2.00;;;11.20;99.90;;;;;;5075387;28;20129;-71
2022/06/10 02:46:40;;;;;;;4.05;1.40;;;11.00;99.90;;;;;;5076673;28;20029;-73
2022/06/10 02:49:09;;;;;;;2.40;1.30;;;11.10;99.90;;;;;;5078636;28;20024;-71
2022/06/10 02:51:37;;;;;;;3.63;1.20;;;11.00;99.90;;;;;;5078641;28;20028;-72
2022/06/10 02:54:06;;;;;;;3.58;1.60;;;11.00;99.90;;;;;;5075883;28;20074;-72
2022/06/10 02:56:31;;;;;;;5.93;2.03;;;11.00;99.90;;;;;;5073791;28;20033;-71
2022/06/10 03:02:07;;;;;;;4.70;1.67;;;11.00;99.90;;;;;;5077201;28;20401;-71
2022/06/10 03:04:59;;;;;;;4.68;1.70;;;11.00;99.90;;;;;;5073355;28;20094;-72
2022/06/10 03:07:24;;;;;;;4.47;1.88;;;11.00;99.90;;;;;;5063952;28;20391;-72
2022/06/10 03:10:05;;;;;;;6.88;1.98;;;11.00;99.90;;;;;;5072886;28;20036;-72
2022/06/10 03:12:38;;;;;;;6.85;1.75;;;11.00;99.90;;;;;;5072879;28;20105;-72
2022/06/10 03:15:16;;;;;;;3.03;1.40;;;11.00;99.90;;;;;;5077144;28;20024;-72
2022/06/10 03:18:22;;;;;;;2.58;1.60;;;11.00;99.90;;;;;;5073568;28;20539;-72
2022/06/10 03:21:12;;;;;;;4.90;1.80;;;11.00;99.90;;;;;;5043027;28;20059;-72
2022/06/10 03:24:24;;;;;;;6.45;1.48;;;11.00;99.90;;;;;;5071775;28;20029;-72
2022/06/10 03:27:06;;;;;;;4.38;1.40;;;11.10;99.90;;;;;;5072114;28;20041;-72
2022/06/10 03:29:53;;;;;;;3.65;2.00;;;11.00;99.90;;;;;;5075553;28;20049;-73
2022/06/10 03:32:35;;;;;;;4.15;1.63;;;11.00;99.90;;;;;;5069386;28;20024;-72
2022/06/10 03:35:27;;;;;;;4.72;1.58;;;11.00;99.90;;;;;;5065050;28;20029;-73
2022/06/10 03:37:54;;;;;;;5.30;1.63;;;11.00;99.90;;;;;;5069655;28;20477;-72
2022/06/10 03:40:24;;;;;;;6.78;1.80;;;11.00;99.90;;;;;;5078332;28;20491;-72
2022/06/10 03:43:01;;;;;;;3.77;2.03;;;11.10;99.90;;;;;;5067212;28;20433;-72
2022/06/10 03:45:36;;;;;;;5.40;1.90;;;11.10;99.90;;;;;;5078364;28;20274;-72
2022/06/10 03:48:03;;;;;;;5.93;1.65;;;11.10;99.90;;;;;;5065135;28;20025;-73
2022/06/10 03:50:35;;;;;;;7.38;2.25;;;11.10;99.90;;;;;;5060162;28;20037;-73
2022/06/10 03:53:02;;;;;;;4.50;1.75;;;11.10;99.90;;;;;;5073921;28;20043;-73
2022/06/10 03:55:27;;;;;;;4.57;1.52;;;11.10;99.90;;;;;;5073966;28;20043;-72
2022/06/10 03:57:53;;;;;;;3.65;1.60;;;11.10;99.90;;;;;;5071256;28;20032;-72
2022/06/10 04:00:23;;;;;;;5.00;1.70;;;11.20;99.90;;;;;;5073158;28;20032;-71
2022/06/10 04:02:48;;;;;;;3.75;1.60;;;11.20;99.90;;;;;;5072800;28;20100;-71
2022/06/10 04:05:14;;;;;;;4.95;1.85;;;11.20;99.90;;;;;;5088366;28;20107;-71
2022/06/10 04:07:41;;;;;;;5.05;1.83;;;11.20;99.90;;;;;;5065250;28;20389;-71
2022/06/10 04:10:09;;;;;;;3.40;1.73;;;11.20;99.90;;;;;;5073580;28;20024;-73
2022/06/10 04:12:36;;;;;;;5.65;2.08;;;11.30;99.90;;;;;;5072270;28;20033;-73
2022/06/10 04:15:02;;;;;;;4.57;1.67;;;11.30;99.90;;;;;;5067592;28;20091;-72
2022/06/10 04:17:28;;;;;;;4.05;1.80;;;11.30;99.90;;;;;;5073436;28;20043;-73
2022/06/10 04:19:54;;;;;;;4.90;1.92;;;11.30;99.90;;;;;;5082829;28;20023;-71
2022/06/10 04:22:19;;;;;;;5.57;2.45;;;11.40;99.90;;;;;;5076869;28;20024;-71
2022/06/10 04:24:45;;;;;;;5.50;1.85;;;11.40;99.90;;;;;;5080015;28;20052;-73
2022/06/10 04:27:11;;;;;;;3.30;1.95;;;11.50;99.90;;;;;;5068620;28;20029;-72
2022/06/10 04:29:36;;;;;;;4.47;2.05;;;11.50;99.90;;;;;;5071960;28;20052;-72
2022/06/10 04:32:02;;;;;;;4.88;1.90;;;11.50;99.90;;;;;;5080052;28;20024;-73
2022/06/10 04:34:27;;;;;;;3.92;2.13;;;11.60;99.90;;;;;;5075781;28;20035;-72
2022/06/10 04:36:53;;;;;;;4.03;2.22;;;11.70;99.90;;;;;;5077996;28;20032;-73
2022/06/10 04:39:19;;;;;;;2.97;2.22;;;11.70;99.90;;;;;;5074877;28;20060;-70
2022/06/10 04:41:45;;;;;;;3.90;1.80;;;11.80;99.90;;;;;;5077728;28;20035;-70
2022/06/10 04:44:10;;;;;;;5.25;2.35;;;11.80;99.90;;;;;;5069883;28;20033;-68
2022/06/10 04:46:40;;;;;;;5.60;1.75;;;11.90;99.90;;;;;;5071148;28;20039;-68
2022/06/10 04:49:06;;;;;;;6.15;2.10;;;12.00;99.90;;;;;;5068729;28;20028;-67
2022/06/10 04:51:33;;;;;;;4.72;2.10;;;12.10;99.90;;;;;;5079536;28;20035;-67
2022/06/10 04:53:59;;;;;;;5.55;2.10;;;12.20;99.90;;;;;;5068959;28;20028;-67
2022/06/10 04:56:25;;;;;;;5.65;1.95;;;12.20;99.90;;;;;;5070497;28;20028;-69
2022/06/10 04:58:50;;;;;;;8.57;2.33;;;12.30;99.90;;;;;;5061773;28;20074;-69
2022/06/10 05:01:16;;;;;;;4.88;2.25;;;12.50;99.90;;;;;;5074026;28;20772;-68
2022/06/10 05:03:42;;;;;;;5.70;2.20;;;12.60;99.90;;;;;;5067074;28;20378;-68
2022/06/10 05:06:08;;;;;;;3.70;1.80;;;12.70;99.90;;;;;;5065904;28;20036;-68
2022/06/10 05:08:34;;;;;;;3.33;1.63;;;12.80;99.90;;;;;;5072948;28;20028;-68
2022/06/10 05:11:00;;;;;;;5.65;2.10;;;12.90;99.90;;;;;;5077688;28;20035;-68
2022/06/10 05:13:25;;;;;;;4.72;2.15;;;13.00;99.90;;;;;;5083506;28;20070;-68
2022/06/10 05:15:52;;;;;;;5.45;2.20;;;13.00;99.90;;;;;;5078217;28;20020;-67
2022/06/10 05:18:21;;;;;;;3.90;2.30;;;13.10;99.90;;;;;;5070665;28;20025;-68
2022/06/10 05:20:47;;;;;;;10.23;3.20;;;13.20;99.90;;;;;;5078132;28;20390;-68
2022/06/10 05:23:15;;;;;;;6.43;2.25;;;13.50;99.90;;;;;;5065769;28;20025;-67
2022/06/10 05:25:41;;;;;;;3.70;2.10;;;13.50;99.90;;;;;;5075276;28;20493;-68
2022/06/10 05:28:09;;;;;;;5.35;2.30;;;13.70;99.90;;;;;;5072881;28;20029;-67
2022/06/10 05:30:35;;;;;;;5.38;2.25;;;13.70;99.90;;;;;;5083256;28;20040;-68
2022/06/10 05:33:03;;;;;;;5.00;2.65;;;13.80;99.90;;;;;;5086111;28;20033;-67
2022/06/10 05:35:30;;;;;;;5.93;2.45;;;14.00;99.90;;;;;;5075086;28;20483;-67
2022/06/10 05:37:56;;;;;;;3.42;2.22;;;14.10;99.90;;;;;;5069962;28;20029;-67
2022/06/10 05:40:24;;;;;;;8.05;2.35;;;14.20;99.90;;;;;;5071382;28;20032;-67
2022/06/10 05:42:51;;;;;;;7.25;3.08;;;14.20;99.90;;;;;;5073690;28;20033;-68
2022/06/10 05:45:18;;;;;;;4.28;2.10;;;14.30;99.90;;;;;;5076940;28;20029;-66
2022/06/10 05:47:45;;;;;;;5.05;2.72;;;14.50;99.90;;;;;;5075699;28;20099;-68
2022/06/10 05:50:23;;;;;;;9.25;2.75;;;14.60;99.90;;;;;;5076158;28;20049;-68
2022/06/10 05:52:49;;;;;;;4.97;2.70;;;14.70;99.90;;;;;;5075283;28;20488;-68
2022/06/10 05:55:16;;;;;;;7.45;2.90;;;14.80;99.90;;;;;;5068474;28;20489;-68
2022/06/10 05:57:42;;;;;;;3.65;2.22;;;14.90;99.90;;;;;;5074633;28;20032;-68
2022/06/10 06:00:21;;;;;;;5.88;2.90;;;15.00;99.90;;;;;;5075321;28;20108;-68
2022/06/10 06:02:46;;;;;;;7.25;2.78;;;15.10;99.90;;;;;;5082208;28;20028;-67
2022/06/10 06:05:12;;;;;;;6.40;3.45;;;15.10;99.90;;;;;;5088645;28;20043;-67
2022/06/10 06:07:40;;;;;;;8.48;3.03;;;15.20;99.90;;;;;;5078003;28;20044;-69
2022/06/10 06:10:10;;;;;;;6.07;2.75;;;15.30;99.90;;;;;;5079738;28;20028;-68
2022/06/10 06:12:35;;;;;;;9.15;3.28;;;15.40;99.90;;;;;;5061651;28;20576;-68
2022/06/10 06:15:01;;;;;;;5.32;2.40;;;15.50;99.90;;;;;;5081818;28;20037;-69
2022/06/10 06:17:27;;;;;;;6.68;3.30;;;15.50;99.90;;;;;;5076071;28;20078;-70
2022/06/10 06:19:52;;;;;;;7.78;3.88;;;15.70;99.90;;;;;;5081054;28;20036;-70
2022/06/10 06:22:18;;;;;;;6.72;3.05;;;15.70;99.90;;;;;;5067512;28;20085;-71
2022/06/10 06:24:44;;;;;;;5.57;2.95;;;15.70;99.90;;;;;;5078024;28;20029;-68
2022/06/10 06:27:14;;;;;;;6.50;2.80;;;15.80;99.90;;;;;;5074098;28;20404;-68
2022/06/10 06:29:40;;;;;;;5.22;2.30;;;15.90;99.90;;;;;;5070541;28;20112;-68
2022/06/10 06:32:10;;;;;;;7.43;2.65;;;15.90;99.90;;;;;;5077755;28;20532;-69
2022/06/10 06:34:37;;;;;;;6.43;3.03;;;15.90;99.90;;;;;;5068899;28;20082;-68
2022/06/10 06:37:03;;;;;;;9.23;3.38;;;16.10;99.90;;;;;;5074791;28;20028;-83
2022/06/10 06:39:28;;;;;;;7.85;3.20;;;16.20;99.90;;;;;;5074355;28;20077;-69
2022/06/10 06:41:55;;;;;;;9.45;3.78;;;16.30;99.90;;;;;;5066770;28;20051;-69
2022/06/10 06:44:21;;;;;;;14.73;4.00;;;16.40;99.90;;;;;;5070108;28;20377;-70
2022/06/10 06:46:47;;;;;;;9.32;3.45;;;16.40;99.90;;;;;;5075412;28;20036;-69
2022/06/10 06:49:20;;;;;;;7.28;3.30;;;16.50;99.90;;;;;;5085978;28;20042;-69
2022/06/10 06:51:46;;;;;;;7.80;3.80;;;16.60;99.90;;;;;;5069897;28;20036;-70
2022/06/10 06:54:12;;;;;;;12.45;3.67;;;16.70;99.90;;;;;;5076534;28;20100;-69
2022/06/10 06:56:37;;;;;;;7.47;2.67;;;16.80;99.90;;;;;;5079047;28;20119;-69
2022/06/10 06:59:06;;;;;;;9.82;2.97;;;16.80;99.90;;;;;;5063077;28;20153;-69
2022/06/10 07:01:31;;;;;;;10.70;2.88;;;17.00;99.90;;;;;;5075241;28;20066;-68
2022/06/10 07:03:57;;;;;;;11.02;2.92;;;17.10;99.90;;;;;;5070735;28;20052;-68
2022/06/10 07:06:23;;;;;;;15.88;3.38;;;17.10;99.90;;;;;;5069047;28;20066;-68
2022/06/10 07:08:50;;;;;;;5.63;2.50;;;17.10;99.90;;;;;;5069368;28;20036;-68
2022/06/10 07:11:16;;;;;;;7.75;2.78;;;17.10;99.90;;;;;;5079458;28;20020;-69
2022/06/10 07:13:42;;;;;;;9.55;2.47;;;17.20;99.90;;;;;;5077871;28;20078;-68
2022/06/10 07:16:08;;;;;;;8.13;2.40;;;17.40;99.90;;;;;;5074044;28;20025;-69
2022/06/10 07:18:34;;;;;;;8.18;2.97;;;17.50;99.90;;;;;;5070571;28;20031;-69
2022/06/10 07:21:00;;;;;;;8.85;2.42;;;17.70;99.90;;;;;;5080898;28;20025;-69
2022/06/10 07:23:27;;;;;;;8.05;2.60;;;17.90;99.90;;;;;;5072899;28;20032;-68
2022/06/10 07:25:53;;;;;;;10.43;2.63;;;17.90;99.90;;;;;;5072257;28;20029;-69
2022/06/10 07:28:19;;;;;;;9.23;2.70;;;17.90;99.90;;;;;;5066880;28;20035;-69
2022/06/10 07:30:45;;;;;;;7.32;2.55;;;18.10;99.90;;;;;;5079126;28;20029;-70
2022/06/10 07:33:12;;;;;;;9.60;2.50;;;18.20;99.90;;;;;;5074124;28;20508;-70
2022/06/10 07:35:38;;;;;;;12.00;3.13;;;18.20;99.90;;;;;;5067218;28;20826;-68
2022/06/10 07:38:04;;;;;;;11.50;2.67;;;18.40;99.90;;;;;;5075609;28;20580;-70
2022/06/10 07:43:21;;;;;;;12.65;2.38;;;18.50;99.90;;;;;;5080495;28;20452;-72
2022/06/10 07:45:48;;;;;;;7.35;2.42;;;18.60;99.90;;;;;;5086487;28;20107;-72
2022/06/10 07:48:14;;;;;;;6.70;2.33;;;18.60;99.90;;;;;;5068998;28;20033;-72
2022/06/10 07:50:42;;;;;;;17.88;3.72;;;18.70;99.90;;;;;;5071980;28;20146;-72
2022/06/10 07:53:09;;;;;;;10.98;3.38;;;18.80;99.90;;;;;;5063683;28;20096;-72
2022/06/10 07:55:35;;;;;;;8.60;2.25;;;18.80;99.90;;;;;;5067828;28;20025;-73
2022/06/10 07:58:01;;;;;;;6.70;1.80;;;18.90;99.90;;;;;;5064031;28;20040;-75
2022/06/10 08:00:27;;;;;;;7.60;2.70;;;19.00;99.90;;;;;;5059959;28;20045;-73
2022/06/10 08:02:53;;;;;;;7.30;2.38;;;19.10;99.90;;;;;;5059711;28;20032;-73
2022/06/10 08:05:19;;;;;;;7.97;2.05;;;19.20;99.90;;;;;;5070105;28;20020;-72
2022/06/10 08:07:46;;;;;;;8.48;2.00;;;19.20;99.90;;;;;;5072226;28;20029;-73
2022/06/10 08:10:24;;;;;;;7.40;2.10;;;19.30;99.90;;;;;;5074334;28;20119;-74
2022/06/10 08:12:50;;;;;;;9.27;2.42;;;19.40;99.90;;;;;;5074873;28;20025;-74
2022/06/10 08:15:18;;;;;;;8.20;2.30;;;19.40;99.90;;;;;;5075762;28;20500;-80
2022/06/10 08:17:43;;;;;;;6.45;1.85;;;19.50;99.90;;;;;;5071924;28;20033;-83
2022/06/10 08:20:18;;;;;;;6.63;2.20;;;19.60;99.90;;;;;;5076848;28;20124;-77
2022/06/10 08:22:43;;;;;;;7.57;1.77;;;19.60;99.80;;;;;;5074400;28;20469;-77
2022/06/10 08:25:11;;;;;;;5.47;2.10;;;19.70;99.70;;;;;;5077377;28;20031;-77
2022/06/10 08:27:37;;;;;;;4.65;1.80;;;19.90;99.20;;;;;;5066360;28;20376;-74
2022/06/10 08:30:06;;;;;;;7.57;2.33;;;20.00;99.10;;;;;;5072539;28;20053;-73
2022/06/10 08:32:32;;;;;;;13.35;2.15;;;20.10;98.60;;;;;;5071678;28;20028;-73
2022/06/10 08:34:57;;;;;;;11.25;2.15;;;20.10;98.20;;;;;;5076381;28;20373;-74
2022/06/10 08:37:23;;;;;;;7.32;1.75;;;20.20;98.50;;;;;;5074397;28;20148;-74
2022/06/10 08:39:49;;;;;;;6.85;1.88;;;20.40;97.10;;;;;;5071667;28;20140;-75
2022/06/10 08:42:40;;;;;;;9.32;2.70;;;20.50;97.20;;;;;;5069162;28;20035;-74
2022/06/10 08:45:27;;;;;;;9.05;1.75;;;20.50;96.50;;;;;;5061510;28;20029;-73
2022/06/10 08:48:05;;;;;;;9.50;2.30;;;20.60;96.30;;;;;;5071031;28;20032;-74
2022/06/10 08:51:20;;;;;;;10.23;2.03;;;20.70;96.40;;;;;;5044777;28;20708;-72
2022/06/10 08:54:14;;;;;;;9.05;1.67;;;20.90;94.50;;;;;;4999506;28;20107;-74
2022/06/10 08:56:43;;;;;;;8.18;1.70;;;21.10;93.90;;;;;;5070575;28;20614;-77
2022/06/10 08:59:18;;;;;;;6.60;1.52;;;21.00;94.10;;;;;;5074228;28;20112;-74
2022/06/10 09:01:50;;;;;;;3.67;1.75;;;21.20;93.80;;;;;;5071031;28;20039;-74
2022/06/10 09:04:25;;;;;;;5.75;1.73;;;21.30;92.60;;;;;;5067167;28;20032;-75
2022/06/10 09:06:56;;;;;;;5.90;1.63;;;21.50;91.30;;;;;;5068706;28;20025;-76
2022/06/10 09:09:26;;;;;;;5.78;1.50;;;21.50;90.90;;;;;;5066895;28;20135;-73
2022/06/10 09:12:07;;;;;;;8.75;2.42;;;21.70;90.60;;;;;;5070481;28;20071;-75
2022/06/10 09:14:34;;;;;;;10.00;1.52;;;21.80;90.40;;;;;;5075468;28;20039;-75
2022/06/10 09:17:11;;;;;;;14.50;2.35;;;21.90;90.10;;;;;;5072956;28;20505;-75
2022/06/10 09:20:27;;;;;;;6.15;1.40;;;22.00;90.40;;;;;;5061999;28;20122;-75
2022/06/10 09:23:13;;;;;;;8.90;1.95;;;22.10;88.20;;;;;;5067953;28;20035;-74
2022/06/10 09:25:44;;;;;;;6.97;2.10;;;22.30;86.70;;;;;;5076681;28;20085;-74
2022/06/10 09:28:11;;;;;;;3.85;1.73;;;22.50;85.80;;;;;;5078676;28;20107;-74
2022/06/10 09:30:45;;;;;;;7.00;1.60;;;22.60;83.80;;;;;;5074230;28;20056;-74
2022/06/10 09:33:40;;;;;;;5.38;1.58;;;22.70;83.40;;;;;;5082953;28;20085;-74
2022/06/10 09:36:26;;;;;;;6.25;1.60;;;22.70;83.20;;;;;;5071484;28;20036;-75
2022/06/10 09:42:41;;;;;;;6.10;1.50;;;22.90;80.70;;;;;;4974387;28;20038;-73
2022/06/10 09:45:28;;;;;;;6.38;1.90;;;22.70;78.80;;;;;;5059664;28;20496;-74
2022/06/10 09:48:22;;;;;;;5.80;1.83;;;22.70;79.40;;;;;;5071173;28;20095;-75
2022/06/10 09:51:19;;;;;;;7.95;1.50;;;22.70;78.30;;;;;;5075519;28;20028;-74
2022/06/10 09:53:56;;;;;;;8.88;1.83;;;22.70;77.10;;;;;;5075507;28;20056;-75
2022/06/10 09:56:33;;;;;;;11.68;2.40;;;22.70;76.00;;;;;;5066663;28;20470;-75
2022/06/10 09:59:24;;;;;;;6.30;2.00;;;22.60;76.80;;;;;;5064769;28;20029;-75
2022/06/10 10:02:03;;;;;;;;;;;22.80;75.90;;;;;;5071223;28;20102;-75
2022/06/10 10:04:57;;;;;;;8.10;1.88;;;22.90;75.50;;;;;;5066033;28;19920;-73
2022/06/10 10:07:39;;;;;;;7.50;1.70;;;23.00;74.00;;;;;;5072546;28;20024;-74
2022/06/10 10:10:35;;;;;;;3.67;1.45;;;23.00;74.70;;;;;;5070951;28;20493;-75
2022/06/10 10:13:30;;;;;;;4.82;1.30;;;23.00;75.20;;;;;;5068315;28;20063;-76
2022/06/10 10:16:01;;;;;;;6.07;2.10;;;23.20;74.20;;;;;;5084322;28;20024;-76
2022/06/10 10:18:30;;;;;;;8.98;2.10;;;23.30;73.30;;;;;;5064603;28;20043;-75
2022/06/10 10:20:56;;;;;;;7.72;1.77;;;23.40;73.40;;;;;;5076929;28;20040;-75
2022/06/10 10:23:34;;;;;;;6.80;1.60;;;23.50;71.70;;;;;;5077198;28;20034;-74
2022/06/10 10:26:04;;;;;;;9.32;2.10;;;23.40;72.10;;;;;;5069099;28;20032;-74
2022/06/10 10:28:34;;;;;;;6.65;1.95;;;22.90;72.00;;;;;;5071939;28;20056;-74
2022/06/10 10:31:17;;;;;;;6.40;2.03;;;22.50;73.00;;;;;;5068861;28;20028;-75
2022/06/10 10:33:43;;;;;;;6.35;1.40;;;22.20;75.40;;;;;;5076137;28;20025;-75
2022/06/10 10:36:32;;;;;;;6.60;1.67;;;22.20;74.80;;;;;;5068526;28;20020;-74
2022/06/10 10:39:20;;;;;;;3.55;1.38;;;22.20;74.90;;;;;;5070419;28;20028;-75
2022/06/10 10:41:48;;;;;;;5.07;1.60;;;22.40;74.90;;;;;;5054251;28;20090;-75
2022/06/10 10:44:36;;;;;;;4.53;1.55;;;22.90;74.30;;;;;;5073157;28;20031;-75
2022/06/10 10:47:14;;;;;;;7.40;2.00;;;23.20;72.90;;;;;;5084341;28;20156;-74
2022/06/10 10:50:06;;;;;;;6.45;1.27;;;23.80;72.60;;;;;;5080616;28;20139;-74
2022/06/10 10:52:34;;;;;;;4.85;1.65;;;24.20;71.70;;;;;;5044076;28;20469;-75
2022/06/10 10:55:06;;;;;;;4.43;1.67;;;24.50;71.40;;;;;;5074844;28;20517;-75
2022/06/10 10:58:00;;;;;;;7.40;1.60;;;24.80;70.10;;;;;;5079428;28;20024;-75
2022/06/10 11:00:39;;;;;;;3.88;1.65;;;25.20;69.10;;;;;;5070530;28;20037;-73
2022/06/10 11:03:06;;;;;;;6.23;1.50;;;25.40;67.70;;;;;;5057706;28;20036;-74
2022/06/10 11:05:47;;;;;;;6.20;2.10;;;25.60;67.10;;;;;;5085156;28;20028;-74
2022/06/10 11:08:30;;;;;;;4.90;1.60;;;25.80;66.20;;;;;;5075669;28;20035;-73
2022/06/10 11:11:22;;;;;;;3.63;1.42;;;26.00;65.40;;;;;;5072805;28;20100;-74
2022/06/10 11:13:54;;;;;;;3.97;1.60;;;26.20;84.50;;;;;;5067517;28;20029;-75
2022/06/10 11:16:26;;;;;;;6.63;1.50;;;26.40;83.70;;;;;;5081011;28;20116;-75
2022/06/10 11:19:01;;;;;;;8.10;1.50;;;26.50;83.50;;;;;;5073324;28;20377;-73
2022/06/10 11:21:29;;;;;;;4.63;2.22;;;26.60;81.40;;;;;;5086575;28;20028;-74
2022/06/10 11:23:57;;;;;;;4.65;1.58;;;26.60;62.30;;;;;;5082377;28;20148;-74
2022/06/10 11:26:25;;;;;;;4.35;1.63;;;26.40;63.40;;;;;;5074822;28;20028;-73
2022/06/10 11:29:00;;;;;;;10.38;1.67;;;26.60;61.80;;;;;;5079494;28;20152;-75
2022/06/10 11:31:41;;;;;;;6.68;1.70;;;26.70;62.50;;;;;;5066449;28;20024;-74
2022/06/10 11:34:16;;;;;;;10.98;2.03;;;26.60;61.90;;;;;;5078446;28;20044;-74
2022/06/10 11:36:49;;;;;;;5.95;1.52;;;26.70;61.90;;;;;;5068489;28;20059;-74
2022/06/10 11:39:33;;;;;;;13.90;1.83;;;26.70;61.60;;;;;;5076573;28;20035;-75
2022/06/10 11:42:17;;;;;;;6.47;1.92;;;26.80;61.30;;;;;;5075798;28;20035;-75
2022/06/10 11:45:19;;;;;;;4.07;1.42;;;26.60;61.60;;;;;;5073714;28;20033;-75
2022/06/10 11:48:11;;;;;;;3.42;1.20;;;26.60;60.90;;;;;;5034786;28;20062;-75
2022/06/10 11:50:46;;;;;;;4.05;1.33;;;26.50;61.20;;;;;;5036304;28;20040;-75
2022/06/10 11:53:19;;;;;;;3.15;1.55;;;26.50;60.20;;;;;;5074700;28;20070;-74
2022/06/10 11:55:50;;;;;;;2.33;1.23;;;26.80;60.40;;;;;;5065072;28;20017;-75
2022/06/10 12:01:22;;;;;;;4.60;1.10;;;27.40;58.70;;;;;;5068051;28;20500;-74
2022/06/10 12:04:10;;;;;;;1.92;1.10;;;27.90;58.50;;;;;;5069168;28;20059;-75
2022/06/10 12:06:50;;;;;;;5.28;1.25;;;28.10;57.70;;;;;;5082263;28;20028;-74
2022/06/10 12:09:25;;;;;;;9.27;1.67;;;28.20;56.20;;;;;;5071504;28;20032;-74
2022/06/10 12:11:57;;;;;;;3.55;1.48;;;28.40;56.40;;;;;;5072093;28;20055;-74
2022/06/10 12:14:45;;;;;;;2.78;1.25;;;28.30;55.60;;;;;;5072205;28;20020;-74
2022/06/10 12:17:28;;;;;;;2.65;1.25;;;28.20;56.40;;;;;;5064509;28;20036;-74
2022/06/10 12:20:21;;;;;;;5.95;1.65;;;28.20;56.30;;;;;;5071361;28;20028;-74
2022/06/10 12:22:47;;;;;;;4.25;1.58;;;28.10;55.90;;;;;;5068805;28;20830;-74
2022/06/10 12:25:24;;;;;;;5.13;1.30;;;27.90;56.10;;;;;;5078786;28;20032;-74
2022/06/10 12:28:12;;;;;;;5.25;1.50;;;28.00;55.90;;;;;;5066209;28;20024;-73
2022/06/10 12:30:44;;;;;;;2.42;1.20;;;28.20;54.80;;;;;;5069223;28;20045;-74
2022/06/10 12:33:26;;;;;;;3.22;1.15;;;28.00;55.10;;;;;;5077585;28;20082;-74
2022/06/10 12:35:53;;;;;;;3.40;1.35;;;28.00;55.50;;;;;;5077026;28;20028;-74
2022/06/10 12:38:21;;;;;;;4.00;1.75;;;28.20;55.30;;;;;;5071848;28;20239;-74
2022/06/10 12:41:13;;;;;;;4.07;1.20;;;28.40;55.10;;;;;;5070769;28;20024;-75
2022/06/10 12:44:01;;;;;;;4.82;1.42;;;28.20;55.30;;;;;;5079674;28;20040;-74
2022/06/10 12:46:33;;;;;;;4.25;1.40;;;27.90;55.70;;;;;;5076663;28;20028;-75
2022/06/10 12:49:07;;;;;;;2.03;1.08;;;27.60;55.70;;;;;;5043534;28;20025;-75
2022/06/10 12:51:43;;;;;;;4.55;1.20;;;27.70;55.30;;;;;;5060580;28;20028;-74
2022/06/10 12:54:26;;;;;;;3.08;1.30;;;27.80;54.80;;;;;;5059467;28;20078;-76
2022/06/10 12:57:33;;;;;;;3.55;0.85;;;28.10;54.20;;;;;;5069531;28;20473;-75
2022/06/10 13:00:22;;;;;;;4.30;1.58;;;28.60;54.60;;;;;;5069162;28;20166;-75
2022/06/10 13:02:57;;;;;;;8.02;1.73;;;29.10;52.80;;;;;;5070562;28;20060;-76
2022/06/10 13:05:27;;;;;;;4.95;1.73;;;29.20;54.50;;;;;;5069356;28;20185;-75
2022/06/10 13:07:53;;;;;;;4.85;1.70;;;29.30;53.20;;;;;;5069800;28;20086;-74
2022/06/10 13:10:44;;;;;;;4.25;1.10;;;28.80;53.70;;;;;;5076866;28;20404;-75
2022/06/10 13:13:18;;;;;;;13.40;1.92;;;28.50;53.70;;;;;;5058453;28;20021;-75
2022/06/10 13:15:44;;;;;;;4.95;1.30;;;28.10;54.60;;;;;;5065447;28;20029;-76
2022/06/10 13:18:19;;;;;;;4.93;1.40;;;27.70;55.00;;;;;;5081843;28;20078;-76
2022/06/10 13:20:49;;;;;;;7.05;1.63;;;27.20;54.70;;;;;;5069850;28;20059;-75
2022/06/10 13:23:24;;;;;;;5.35;1.35;;;27.10;55.80;;;;;;5070606;28;20078;-74
2022/06/10 13:26:03;;;;;;;4.80;1.13;;;27.10;55.70;;;;;;5065972;28;20107;-80
2022/06/10 13:28:29;;;;;;;7.18;2.15;;;27.00;56.10;;;;;;5067580;28;20072;-74
2022/06/10 13:31:24;;;;;;;8.23;1.20;;;26.90;55.70;;;;;;5069601;28;20046;-76
2022/06/10 13:33:58;;;;;;;5.28;1.02;;;26.60;55.90;;;;;;5047517;28;20102;-75
2022/06/10 13:36:35;;;;;;;5.30;1.25;;;26.20;56.20;;;;;;5075070;28;20462;-76